sensor_id;sensor_type;location;lat;lon;timestamp;temperature;humidity
31133;DHT22;17779;50.942;4.026;2023-02-12T00:01:13;9.70;99.90
31133;DHT22;17779;50.942;4.026;2023-02-12T00:03:39;9.60;99.90
31133;DHT22;17779;50.942;4.026;2023-02-12T00:06:06;9.50;99.90
31133;DHT22;17779;50.942;4.026;2023-02-12T00:08:31;9.30;99.90
31133;DHT22;17779;50.942;4.026;2023-02-12T00:10:57;9.20;99.90
31133;DHT22;17779;50.942;4.026;2023-02-12T00:13:23;9.20;99.90
31133;DHT22;17779;50.942;4.026;2023-02-12T00:15:49;9.10;99.90
31133;DHT22;17779;50.942;4.026;2023-02-12T00:18:14;9.10;99.90
31133;DHT22;17779;50.942;4.026;2023-02-12T00:20:40;9.00;99.90
31133;DHT22;17779;50.942;4.026;2023-02-12T00:23:06;8.80;99.90
31133;DHT22;17779;50.942;4.026;2023-02-12T00:25:32;8.70;99.90
31133;DHT22;17779;50.942;4.026;2023-02-12T00:27:58;8.70;99.90
31133;DHT22;17779;50.942;4.026;2023-02-12T00:30:24;8.70;99.90
31133;DHT22;17779;50.942;4.026;2023-02-12T00:32:49;8.80;99.90
31133;DHT22;17779;50.942;4.026;2023-02-12T00:35:15;9.00;99.90
31133;DHT22;17779;50.942;4.026;2023-02-12T00:37:41;9.10;99.90
31133;DHT22;17779;50.942;4.026;2023-02-12T00:40:07;9.20;99.90
31133;DHT22;17779;50.942;4.026;2023-02-12T00:42:32;9.30;99.90
31133;DHT22;17779;50.942;4.026;2023-02-12T00:44:58;9.20;99.90
31133;DHT22;17779;50.942;4.026;2023-02-12T00:47:24;9.00;99.90
31133;DHT22;17779;50.942;4.026;2023-02-12T00:49:51;8.80;99.90
31133;DHT22;17779;50.942;4.026;2023-02-12T00:52:16;9.00;99.90
31133;DHT22;17779;50.942;4.026;2023-02-12T00:54:42;9.10;99.90
31133;DHT22;17779;50.942;4.026;2023-02-12T00:57:08;8.90;99.90
31133;DHT22;17779;50.942;4.026;2023-02-12T00:59:33;8.80;99.90
31133;DHT22;17779;50.942;4.026;2023-02-12T01:02:02;8.90;99.90
31133;DHT22;17779;50.942;4.026;2023-02-12T01:04:28;8.90;99.90
31133;DHT22;17779;50.942;4.026;2023-02-12T01:06:54;9.00;99.90
31133;DHT22;17779;50.942;4.026;2023-02-12T01:09:19;9.00;99.90
31133;DHT22;17779;50.942;4.026;2023-02-12T01:11:45;9.30;99.90
31133;DHT22;17779;50.942;4.026;2023-02-12T01:14:11;9.30;99.90
31133;DHT22;17779;50.942;4.026;2023-02-12T01:16:36;9.20;99.90
31133;DHT22;17779;50.942;4.026;2023-02-12T01:19:03;8.90;99.90
31133;DHT22;17779;50.942;4.026;2023-02-12T01:21:30;9.10;99.90
31133;DHT22;17779;50.942;4.026;2023-02-12T01:23:56;9.20;99.90
31133;DHT22;17779;50.942;4.026;2023-02-12T01:26:23;9.10;99.90
31133;DHT22;17779;50.942;4.026;2023-02-12T01:28:50;9.10;99.90
31133;DHT22;17779;50.942;4.026;2023-02-12T01:31:17;9.10;99.90
31133;DHT22;17779;50.942;4.026;2023-02-12T01:33:43;9.20;99.90
31133;DHT22;17779;50.942;4.026;2023-02-12T01:36:09;9.20;99.90
31133;DHT22;17779;50.942;4.026;2023-02-12T01:38:35;9.20;99.90
31133;DHT22;17779;50.942;4.026;2023-02-12T01:41:11;9.20;99.90
31133;DHT22;17779;50.942;4.026;2023-02-12T01:43:37;9.20;99.90
31133;DHT22;17779;50.942;4.026;2023-02-12T01:46:04;9.30;99.90
31133;DHT22;17779;50.942;4.026;2023-02-12T01:48:31;9.40;99.90
31133;DHT22;17779;50.942;4.026;2023-02-12T01:50:58;9.40;99.90
31133;DHT22;17779;50.942;4.026;2023-02-12T01:53:27;9.30;99.90
31133;DHT22;17779;50.942;4.026;2023-02-12T01:55:56;8.90;99.90
31133;DHT22;17779;50.942;4.026;2023-02-12T01:58:23;8.90;99.90
31133;DHT22;17779;50.942;4.026;2023-02-12T02:00:49;9.10;99.90
31133;DHT22;17779;50.942;4.026;2023-02-12T02:03:15;9.00;99.90
31133;DHT22;17779;50.942;4.026;2023-02-12T02:05:55;8.90;99.90
31133;DHT22;17779;50.942;4.026;2023-02-12T02:08:21;8.90;99.90
31133;DHT22;17779;50.942;4.026;2023-02-12T02:10:47;9.10;99.90
31133;DHT22;17779;50.942;4.026;2023-02-12T02:13:13;8.90;99.90
31133;DHT22;17779;50.942;4.026;2023-02-12T02:15:58;9.00;99.90
31133;DHT22;17779;50.942;4.026;2023-02-12T02:21:03;9.10;99.90
31133;DHT22;17779;50.942;4.026;2023-02-12T02:23:39;9.00;99.90
31133;DHT22;17779;50.942;4.026;2023-02-12T02:31:22;9.50;99.90
31133;DHT22;17779;50.942;4.026;2023-02-12T02:33:54;9.20;99.90
31133;DHT22;17779;50.942;4.026;2023-02-12T02:38:54;9.30;99.90
31133;DHT22;17779;50.942;4.026;2023-02-12T02:41:27;9.20;99.90
31133;DHT22;17779;50.942;4.026;2023-02-12T02:43:53;9.20;99.90
31133;DHT22;17779;50.942;4.026;2023-02-12T02:46:20;9.00;99.90
31133;DHT22;17779;50.942;4.026;2023-02-12T02:48:51;8.80;99.90
31133;DHT22;17779;50.942;4.026;2023-02-12T02:51:22;9.00;99.90
31133;DHT22;17779;50.942;4.026;2023-02-12T02:56:30;9.30;99.90
31133;DHT22;17779;50.942;4.026;2023-02-12T02:59:02;9.30;99.90
31133;DHT22;17779;50.942;4.026;2023-02-12T03:01:36;9.00;99.90
31133;DHT22;17779;50.942;4.026;2023-02-12T03:04:06;9.10;99.90
31133;DHT22;17779;50.942;4.026;2023-02-12T03:06:45;9.10;99.90
31133;DHT22;17779;50.942;4.026;2023-02-12T03:11:54;9.30;99.90
31133;DHT22;17779;50.942;4.026;2023-02-12T03:14:23;9.40;99.90
31133;DHT22;17779;50.942;4.026;2023-02-12T03:19:19;9.00;99.90
31133;DHT22;17779;50.942;4.026;2023-02-12T03:21:57;9.00;99.90
31133;DHT22;17779;50.942;4.026;2023-02-12T03:24:30;9.10;99.90
31133;DHT22;17779;50.942;4.026;2023-02-12T03:27:58;9.00;99.90
31133;DHT22;17779;50.942;4.026;2023-02-12T03:29:52;8.80;99.90
31133;DHT22;17779;50.942;4.026;2023-02-12T03:32:28;9.10;99.90
31133;DHT22;17779;50.942;4.026;2023-02-12T03:40:28;8.80;99.90
31133;DHT22;17779;50.942;4.026;2023-02-12T03:42:59;8.80;99.90
31133;DHT22;17779;50.942;4.026;2023-02-12T03:48:02;8.90;99.90
31133;DHT22;17779;50.942;4.026;2023-02-12T03:53:09;8.60;99.90
31133;DHT22;17779;50.942;4.026;2023-02-12T03:55:35;8.70;99.90
31133;DHT22;17779;50.942;4.026;2023-02-12T03:58:02;8.90;99.90
31133;DHT22;17779;50.942;4.026;2023-02-12T04:00:31;9.00;99.90
31133;DHT22;17779;50.942;4.026;2023-02-12T04:02:56;8.80;99.90
31133;DHT22;17779;50.942;4.026;2023-02-12T04:05:23;8.70;99.90
31133;DHT22;17779;50.942;4.026;2023-02-12T04:07:49;8.70;99.90
31133;DHT22;17779;50.942;4.026;2023-02-12T04:10:16;9.00;99.90
31133;DHT22;17779;50.942;4.026;2023-02-12T04:12:45;9.20;99.90
31133;DHT22;17779;50.942;4.026;2023-02-12T04:18:02;9.20;99.90
31133;DHT22;17779;50.942;4.026;2023-02-12T04:20:43;9.20;99.90
31133;DHT22;17779;50.942;4.026;2023-02-12T04:23:16;9.20;99.90
31133;DHT22;17779;50.942;4.026;2023-02-12T04:28:27;9.10;99.90
31133;DHT22;17779;50.942;4.026;2023-02-12T04:33:34;9.40;99.90
31133;DHT22;17779;50.942;4.026;2023-02-12T04:36:05;9.40;99.90
31133;DHT22;17779;50.942;4.026;2023-02-12T04:38:37;9.20;99.90
31133;DHT22;17779;50.942;4.026;2023-02-12T04:41:05;9.20;99.90
31133;DHT22;17779;50.942;4.026;2023-02-12T04:43:32;8.90;99.90
31133;DHT22;17779;50.942;4.026;2023-02-12T04:46:01;8.80;99.90
31133;DHT22;17779;50.942;4.026;2023-02-12T04:48:27;8.90;99.90
31133;DHT22;17779;50.942;4.026;2023-02-12T04:50:53;9.00;99.90
31133;DHT22;17779;50.942;4.026;2023-02-12T04:53:19;9.10;99.90
31133;DHT22;17779;50.942;4.026;2023-02-12T04:55:44;9.10;99.90
31133;DHT22;17779;50.942;4.026;2023-02-12T04:58:11;9.20;99.90
31133;DHT22;17779;50.942;4.026;2023-02-12T05:00:37;9.30;99.90
31133;DHT22;17779;50.942;4.026;2023-02-12T05:03:03;9.30;99.90
31133;DHT22;17779;50.942;4.026;2023-02-12T05:05:29;8.80;99.90
31133;DHT22;17779;50.942;4.026;2023-02-12T05:07:54;8.90;99.90
31133;DHT22;17779;50.942;4.026;2023-02-12T05:10:20;9.10;99.90
31133;DHT22;17779;50.942;4.026;2023-02-12T05:12:46;9.20;99.90
31133;DHT22;17779;50.942;4.026;2023-02-12T05:15:11;8.90;99.90
31133;DHT22;17779;50.942;4.026;2023-02-12T05:17:37;8.70;99.90
31133;DHT22;17779;50.942;4.026;2023-02-12T05:20:03;8.40;99.90
31133;DHT22;17779;50.942;4.026;2023-02-12T05:22:29;8.20;99.90
31133;DHT22;17779;50.942;4.026;2023-02-12T05:24:55;8.50;99.90
31133;DHT22;17779;50.942;4.026;2023-02-12T05:27:21;8.60;99.90
31133;DHT22;17779;50.942;4.026;2023-02-12T05:29:46;8.60;99.90
31133;DHT22;17779;50.942;4.026;2023-02-12T05:32:12;8.70;99.90
31133;DHT22;17779;50.942;4.026;2023-02-12T05:34:38;9.00;99.90
31133;DHT22;17779;50.942;4.026;2023-02-12T05:37:04;8.90;99.90
31133;DHT22;17779;50.942;4.026;2023-02-12T05:39:29;8.90;99.90
31133;DHT22;17779;50.942;4.026;2023-02-12T05:41:55;9.00;99.90
31133;DHT22;17779;50.942;4.026;2023-02-12T05:44:21;9.00;99.90
31133;DHT22;17779;50.942;4.026;2023-02-12T05:46:46;8.80;99.90
31133;DHT22;17779;50.942;4.026;2023-02-12T05:49:12;8.80;99.90
31133;DHT22;17779;50.942;4.026;2023-02-12T05:51:38;9.00;99.90
31133;DHT22;17779;50.942;4.026;2023-02-12T05:54:04;8.70;99.90
31133;DHT22;17779;50.942;4.026;2023-02-12T05:56:31;8.40;99.90
31133;DHT22;17779;50.942;4.026;2023-02-12T05:58:59;8.70;99.90
31133;DHT22;17779;50.942;4.026;2023-02-12T06:01:28;8.90;99.90
31133;DHT22;17779;50.942;4.026;2023-02-12T06:03:54;9.00;99.90
31133;DHT22;17779;50.942;4.026;2023-02-12T06:06:19;9.20;99.90
31133;DHT22;17779;50.942;4.026;2023-02-12T06:08:48;9.10;99.90
31133;DHT22;17779;50.942;4.026;2023-02-12T06:11:14;9.00;99.90
31133;DHT22;17779;50.942;4.026;2023-02-12T06:13:40;9.00;99.90
31133;DHT22;17779;50.942;4.026;2023-02-12T06:16:06;8.60;99.90
31133;DHT22;17779;50.942;4.026;2023-02-12T06:18:34;8.40;99.90
31133;DHT22;17779;50.942;4.026;2023-02-12T06:21:01;8.40;99.90
31133;DHT22;17779;50.942;4.026;2023-02-12T06:23:27;8.70;99.90
31133;DHT22;17779;50.942;4.026;2023-02-12T06:25:54;8.70;99.90
31133;DHT22;17779;50.942;4.026;2023-02-12T06:28:20;8.80;99.90
31133;DHT22;17779;50.942;4.026;2023-02-12T06:30:46;8.50;99.90
31133;DHT22;17779;50.942;4.026;2023-02-12T06:33:12;8.00;99.90
31133;DHT22;17779;50.942;4.026;2023-02-12T06:35:37;7.70;99.90
31133;DHT22;17779;50.942;4.026;2023-02-12T06:38:03;7.90;99.90
31133;DHT22;17779;50.942;4.026;2023-02-12T06:40:29;7.80;99.90
31133;DHT22;17779;50.942;4.026;2023-02-12T06:42:54;7.90;99.90
31133;DHT22;17779;50.942;4.026;2023-02-12T06:45:20;8.00;99.90
31133;DHT22;17779;50.942;4.026;2023-02-12T06:47:46;8.00;99.90
31133;DHT22;17779;50.942;4.026;2023-02-12T06:50:12;7.90;99.90
31133;DHT22;17779;50.942;4.026;2023-02-12T06:52:37;8.00;99.90
31133;DHT22;17779;50.942;4.026;2023-02-12T06:55:03;7.90;99.90
31133;DHT22;17779;50.942;4.026;2023-02-12T06:57:29;7.90;99.90
31133;DHT22;17779;50.942;4.026;2023-02-12T06:59:55;8.10;99.90
31133;DHT22;17779;50.942;4.026;2023-02-12T07:02:21;8.40;99.90
31133;DHT22;17779;50.942;4.026;2023-02-12T07:04:46;8.50;99.90
31133;DHT22;17779;50.942;4.026;2023-02-12T07:07:12;8.70;99.90
31133;DHT22;17779;50.942;4.026;2023-02-12T07:09:38;8.80;99.90
31133;DHT22;17779;50.942;4.026;2023-02-12T07:12:03;8.70;99.90
31133;DHT22;17779;50.942;4.026;2023-02-12T07:14:29;8.60;99.90
31133;DHT22;17779;50.942;4.026;2023-02-12T07:17:14;8.70;99.90
31133;DHT22;17779;50.942;4.026;2023-02-12T07:19:39;8.70;99.90
31133;DHT22;17779;50.942;4.026;2023-02-12T07:22:05;8.80;99.90
31133;DHT22;17779;50.942;4.026;2023-02-12T07:24:31;8.60;99.90
31133;DHT22;17779;50.942;4.026;2023-02-12T07:26:56;8.50;99.90
31133;DHT22;17779;50.942;4.026;2023-02-12T07:29:22;8.60;99.90
31133;DHT22;17779;50.942;4.026;2023-02-12T07:31:47;8.70;99.90
31133;DHT22;17779;50.942;4.026;2023-02-12T07:34:13;8.70;99.90
31133;DHT22;17779;50.942;4.026;2023-02-12T07:36:39;8.70;99.90
31133;DHT22;17779;50.942;4.026;2023-02-12T07:39:05;8.50;99.90
31133;DHT22;17779;50.942;4.026;2023-02-12T07:41:32;8.30;99.90
31133;DHT22;17779;50.942;4.026;2023-02-12T07:44:02;8.40;99.90
31133;DHT22;17779;50.942;4.026;2023-02-12T07:46:32;8.70;99.90
31133;DHT22;17779;50.942;4.026;2023-02-12T07:48:59;8.90;99.90
31133;DHT22;17779;50.942;4.026;2023-02-12T07:51:25;9.00;99.90
31133;DHT22;17779;50.942;4.026;2023-02-12T07:53:51;8.80;99.90
31133;DHT22;17779;50.942;4.026;2023-02-12T07:56:18;8.60;99.90
31133;DHT22;17779;50.942;4.026;2023-02-12T07:58:45;8.80;99.90
31133;DHT22;17779;50.942;4.026;2023-02-12T08:01:17;9.00;99.90
31133;DHT22;17779;50.942;4.026;2023-02-12T08:03:43;8.50;99.90
31133;DHT22;17779;50.942;4.026;2023-02-12T08:06:13;8.20;99.90
31133;DHT22;17779;50.942;4.026;2023-02-12T08:08:39;8.10;99.90
31133;DHT22;17779;50.942;4.026;2023-02-12T08:11:06;8.40;99.90
31133;DHT22;17779;50.942;4.026;2023-02-12T08:13:32;8.60;99.90
31133;DHT22;17779;50.942;4.026;2023-02-12T08:15:59;8.70;99.90
31133;DHT22;17779;50.942;4.026;2023-02-12T08:18:24;8.70;99.90
31133;DHT22;17779;50.942;4.026;2023-02-12T08:20:50;8.90;99.90
31133;DHT22;17779;50.942;4.026;2023-02-12T08:23:16;8.90;99.90
31133;DHT22;17779;50.942;4.026;2023-02-12T08:25:42;8.70;99.90
31133;DHT22;17779;50.942;4.026;2023-02-12T08:28:07;8.70;99.90
31133;DHT22;17779;50.942;4.026;2023-02-12T08:30:33;8.90;99.90
31133;DHT22;17779;50.942;4.026;2023-02-12T08:32:59;9.10;99.90
31133;DHT22;17779;50.942;4.026;2023-02-12T08:35:24;9.30;99.90
31133;DHT22;17779;50.942;4.026;2023-02-12T08:37:50;9.50;99.90
31133;DHT22;17779;50.942;4.026;2023-02-12T08:40:17;9.80;99.90
31133;DHT22;17779;50.942;4.026;2023-02-12T08:42:42;9.80;99.90
31133;DHT22;17779;50.942;4.026;2023-02-12T08:45:08;10.10;99.90
31133;DHT22;17779;50.942;4.026;2023-02-12T08:47:34;10.10;99.90
31133;DHT22;17779;50.942;4.026;2023-02-12T08:49:59;10.00;99.90
31133;DHT22;17779;50.942;4.026;2023-02-12T08:52:25;10.00;99.90
31133;DHT22;17779;50.942;4.026;2023-02-12T08:54:51;10.00;99.90
31133;DHT22;17779;50.942;4.026;2023-02-12T08:57:17;9.60;99.90
31133;DHT22;17779;50.942;4.026;2023-02-12T08:59:42;9.60;99.90
31133;DHT22;17779;50.942;4.026;2023-02-12T09:02:08;9.40;99.90
31133;DHT22;17779;50.942;4.026;2023-02-12T09:04:34;9.20;99.90
31133;DHT22;17779;50.942;4.026;2023-02-12T09:07:00;9.30;99.90
31133;DHT22;17779;50.942;4.026;2023-02-12T09:09:26;9.60;99.90
31133;DHT22;17779;50.942;4.026;2023-02-12T09:11:51;9.80;99.90
31133;DHT22;17779;50.942;4.026;2023-02-12T09:14:17;9.70;99.90
31133;DHT22;17779;50.942;4.026;2023-02-12T09:16:48;9.70;99.90
31133;DHT22;17779;50.942;4.026;2023-02-12T09:19:14;9.70;99.90
31133;DHT22;17779;50.942;4.026;2023-02-12T09:21:40;9.80;99.90
31133;DHT22;17779;50.942;4.026;2023-02-12T09:24:06;9.80;99.90
31133;DHT22;17779;50.942;4.026;2023-02-12T09:26:32;10.20;99.90
31133;DHT22;17779;50.942;4.026;2023-02-12T09:28:58;10.30;99.90
31133;DHT22;17779;50.942;4.026;2023-02-12T09:31:25;10.20;99.90
31133;DHT22;17779;50.942;4.026;2023-02-12T09:33:51;10.00;99.90
31133;DHT22;17779;50.942;4.026;2023-02-12T09:36:17;9.90;99.90
31133;DHT22;17779;50.942;4.026;2023-02-12T09:38:43;9.90;99.90
31133;DHT22;17779;50.942;4.026;2023-02-12T09:43:55;10.40;99.90
31133;DHT22;17779;50.942;4.026;2023-02-12T09:46:32;10.20;99.90
31133;DHT22;17779;50.942;4.026;2023-02-12T09:49:02;9.90;99.90
31133;DHT22;17779;50.942;4.026;2023-02-12T09:51:31;10.00;99.90
31133;DHT22;17779;50.942;4.026;2023-02-12T09:54:02;10.00;99.90
31133;DHT22;17779;50.942;4.026;2023-02-12T09:56:29;9.80;99.90
31133;DHT22;17779;50.942;4.026;2023-02-12T09:58:59;9.80;99.90
31133;DHT22;17779;50.942;4.026;2023-02-12T10:01:25;10.00;99.90
31133;DHT22;17779;50.942;4.026;2023-02-12T10:03:51;10.00;99.90
31133;DHT22;17779;50.942;4.026;2023-02-12T10:06:21;9.90;99.90
31133;DHT22;17779;50.942;4.026;2023-02-12T10:14:22;10.30;99.90
31133;DHT22;17779;50.942;4.026;2023-02-12T10:27:13;10.90;99.90
31133;DHT22;17779;50.942;4.026;2023-02-12T10:29:40;10.80;99.90
31133;DHT22;17779;50.942;4.026;2023-02-12T10:32:25;10.70;99.90
31133;DHT22;17779;50.942;4.026;2023-02-12T10:34:52;10.40;99.90
31133;DHT22;17779;50.942;4.026;2023-02-12T10:37:25;10.50;99.90
31133;DHT22;17779;50.942;4.026;2023-02-12T10:39:52;10.90;99.90
31133;DHT22;17779;50.942;4.026;2023-02-12T10:42:27;11.00;99.90
31133;DHT22;17779;50.942;4.026;2023-02-12T10:44:55;11.30;99.90
31133;DHT22;17779;50.942;4.026;2023-02-12T10:47:21;11.10;99.90
31133;DHT22;17779;50.942;4.026;2023-02-12T10:49:58;11.30;99.90
31133;DHT22;17779;50.942;4.026;2023-02-12T10:52:46;11.20;99.90
31133;DHT22;17779;50.942;4.026;2023-02-12T10:55:23;10.70;99.90
31133;DHT22;17779;50.942;4.026;2023-02-12T10:57:49;10.80;99.90
31133;DHT22;17779;50.942;4.026;2023-02-12T11:02:41;10.90;99.90
31133;DHT22;17779;50.942;4.026;2023-02-12T11:05:23;11.20;99.90
31133;DHT22;17779;50.942;4.026;2023-02-12T11:07:50;11.40;99.90
31133;DHT22;17779;50.942;4.026;2023-02-12T11:10:30;11.30;99.90
31133;DHT22;17779;50.942;4.026;2023-02-12T11:12:58;11.00;99.90
31133;DHT22;17779;50.942;4.026;2023-02-12T11:15:26;11.40;99.90
31133;DHT22;17779;50.942;4.026;2023-02-12T11:17:56;11.60;99.90
31133;DHT22;17779;50.942;4.026;2023-02-12T11:20:24;11.90;99.90
31133;DHT22;17779;50.942;4.026;2023-02-12T11:25:22;10.50;99.90
31133;DHT22;17779;50.942;4.026;2023-02-12T11:30:33;11.00;99.90
31133;DHT22;17779;50.942;4.026;2023-02-12T11:33:41;11.50;99.90
31133;DHT22;17779;50.942;4.026;2023-02-12T11:35:48;11.50;99.90
31133;DHT22;17779;50.942;4.026;2023-02-12T11:38:22;11.70;99.90
31133;DHT22;17779;50.942;4.026;2023-02-12T11:40:48;11.80;99.90
31133;DHT22;17779;50.942;4.026;2023-02-12T11:43:15;11.60;99.90
31133;DHT22;17779;50.942;4.026;2023-02-12T11:45:46;11.20;99.90
31133;DHT22;17779;50.942;4.026;2023-02-12T11:48:24;10.50;99.90
31133;DHT22;17779;50.942;4.026;2023-02-12T11:50:52;10.70;99.90
31133;DHT22;17779;50.942;4.026;2023-02-12T11:53:41;11.10;99.90
31133;DHT22;17779;50.942;4.026;2023-02-12T11:56:09;11.00;99.90
31133;DHT22;17779;50.942;4.026;2023-02-12T11:58:36;10.80;99.90
31133;DHT22;17779;50.942;4.026;2023-02-12T12:01:03;10.60;99.90
31133;DHT22;17779;50.942;4.026;2023-02-12T12:16:32;10.70;99.90
31133;DHT22;17779;50.942;4.026;2023-02-12T12:19:24;11.10;99.90
31133;DHT22;17779;50.942;4.026;2023-02-12T12:27:24;11.00;99.90
31133;DHT22;17779;50.942;4.026;2023-02-12T12:30:15;11.10;99.90
31133;DHT22;17779;50.942;4.026;2023-02-12T12:32:42;11.40;99.90
31133;DHT22;17779;50.942;4.026;2023-02-12T12:35:10;11.50;99.90
31133;DHT22;17779;50.942;4.026;2023-02-12T12:37:53;11.30;99.90
31133;DHT22;17779;50.942;4.026;2023-02-12T12:40:29;11.00;99.90
31133;DHT22;17779;50.942;4.026;2023-02-12T12:48:01;11.00;99.90
31133;DHT22;17779;50.942;4.026;2023-02-12T13:01:21;11.40;99.90
31133;DHT22;17779;50.942;4.026;2023-02-12T13:03:58;11.20;99.90
31133;DHT22;17779;50.942;4.026;2023-02-12T13:06:31;11.10;99.90
31133;DHT22;17779;50.942;4.026;2023-02-12T13:16:39;11.40;99.90
31133;DHT22;17779;50.942;4.026;2023-02-12T13:19:17;11.00;99.90
31133;DHT22;17779;50.942;4.026;2023-02-12T13:21:55;11.30;99.90
31133;DHT22;17779;50.942;4.026;2023-02-12T13:29:48;11.30;99.90
31133;DHT22;17779;50.942;4.026;2023-02-12T13:32:20;11.60;99.90
31133;DHT22;17779;50.942;4.026;2023-02-12T13:34:47;11.50;99.90
31133;DHT22;17779;50.942;4.026;2023-02-12T13:37:46;11.40;99.90
31133;DHT22;17779;50.942;4.026;2023-02-12T13:40:05;11.40;99.90
31133;DHT22;17779;50.942;4.026;2023-02-12T13:42:38;11.20;99.90
31133;DHT22;17779;50.942;4.026;2023-02-12T13:45:15;11.30;99.90
31133;DHT22;17779;50.942;4.026;2023-02-12T13:47:46;11.00;99.90
31133;DHT22;17779;50.942;4.026;2023-02-12T13:52:56;11.10;99.90
31133;DHT22;17779;50.942;4.026;2023-02-12T14:03:14;11.30;99.90
31133;DHT22;17779;50.942;4.026;2023-02-12T14:05:40;11.20;99.90
31133;DHT22;17779;50.942;4.026;2023-02-12T14:08:06;11.10;99.90
31133;DHT22;17779;50.942;4.026;2023-02-12T14:10:34;11.10;99.90
31133;DHT22;17779;50.942;4.026;2023-02-12T14:15:35;10.90;99.90
31133;DHT22;17779;50.942;4.026;2023-02-12T14:18:06;11.20;99.90
31133;DHT22;17779;50.942;4.026;2023-02-12T14:20:36;10.90;99.90
31133;DHT22;17779;50.942;4.026;2023-02-12T14:23:19;10.90;99.90
31133;DHT22;17779;50.942;4.026;2023-02-12T14:25:47;10.50;99.90
31133;DHT22;17779;50.942;4.026;2023-02-12T14:28:21;10.50;99.90
31133;DHT22;17779;50.942;4.026;2023-02-12T14:31:34;10.40;99.90
31133;DHT22;17779;50.942;4.026;2023-02-12T14:33:34;10.40;99.90
31133;DHT22;17779;50.942;4.026;2023-02-12T14:46:42;10.30;99.90
31133;DHT22;17779;50.942;4.026;2023-02-12T14:49:27;10.40;99.90
31133;DHT22;17779;50.942;4.026;2023-02-12T14:51:59;10.30;99.90
31133;DHT22;17779;50.942;4.026;2023-02-12T14:59:53;10.20;99.90
31133;DHT22;17779;50.942;4.026;2023-02-12T15:02:22;10.00;99.90
31133;DHT22;17779;50.942;4.026;2023-02-12T15:04:49;10.10;99.90
31133;DHT22;17779;50.942;4.026;2023-02-12T15:07:19;10.30;99.90
31133;DHT22;17779;50.942;4.026;2023-02-12T15:09:51;10.40;99.90
31133;DHT22;17779;50.942;4.026;2023-02-12T15:13:01;10.50;99.90
31133;DHT22;17779;50.942;4.026;2023-02-12T15:17:38;10.70;99.90
31133;DHT22;17779;50.942;4.026;2023-02-12T15:20:53;10.50;99.90
31133;DHT22;17779;50.942;4.026;2023-02-12T15:22:51;10.40;99.90
31133;DHT22;17779;50.942;4.026;2023-02-12T15:27:42;10.20;99.90
31133;DHT22;17779;50.942;4.026;2023-02-12T15:30:15;10.00;99.90
31133;DHT22;17779;50.942;4.026;2023-02-12T15:32:41;10.00;99.90
31133;DHT22;17779;50.942;4.026;2023-02-12T15:35:27;10.10;99.90
31133;DHT22;17779;50.942;4.026;2023-02-12T15:37:53;10.10;99.90
31133;DHT22;17779;50.942;4.026;2023-02-12T15:40:20;10.00;99.90
31133;DHT22;17779;50.942;4.026;2023-02-12T15:42:53;9.90;99.90
31133;DHT22;17779;50.942;4.026;2023-02-12T15:45:20;9.80;99.90
31133;DHT22;17779;50.942;4.026;2023-02-12T15:50:31;9.90;99.90
31133;DHT22;17779;50.942;4.026;2023-02-12T15:52:57;10.00;99.90
31133;DHT22;17779;50.942;4.026;2023-02-12T15:55:24;10.00;99.90
31133;DHT22;17779;50.942;4.026;2023-02-12T15:57:53;10.10;99.90
31133;DHT22;17779;50.942;4.026;2023-02-12T16:00:27;9.90;99.90
31133;DHT22;17779;50.942;4.026;2023-02-12T16:02:53;9.90;99.90
31133;DHT22;17779;50.942;4.026;2023-02-12T16:05:19;9.80;99.90
31133;DHT22;17779;50.942;4.026;2023-02-12T16:07:45;9.70;99.90
31133;DHT22;17779;50.942;4.026;2023-02-12T16:10:15;9.60;99.90
31133;DHT22;17779;50.942;4.026;2023-02-12T16:12:42;9.50;99.90
31133;DHT22;17779;50.942;4.026;2023-02-12T16:19:01;9.50;99.90
31133;DHT22;17779;50.942;4.026;2023-02-12T16:21:04;9.50;99.90
31133;DHT22;17779;50.942;4.026;2023-02-12T16:23:30;9.60;99.90
31133;DHT22;17779;50.942;4.026;2023-02-12T16:25:56;9.40;99.90
31133;DHT22;17779;50.942;4.026;2023-02-12T16:28:29;9.30;99.90
31133;DHT22;17779;50.942;4.026;2023-02-12T16:31:10;9.20;99.90
31133;DHT22;17779;50.942;4.026;2023-02-12T16:36:06;9.40;99.90
31133;DHT22;17779;50.942;4.026;2023-02-12T16:38:43;9.50;99.90
31133;DHT22;17779;50.942;4.026;2023-02-12T16:43:38;9.50;99.90
31133;DHT22;17779;50.942;4.026;2023-02-12T16:46:04;9.60;99.90
31133;DHT22;17779;50.942;4.026;2023-02-12T16:48:30;9.50;99.90
31133;DHT22;17779;50.942;4.026;2023-02-12T16:51:00;9.40;99.90
31133;DHT22;17779;50.942;4.026;2023-02-12T16:55:56;9.50;99.90
31133;DHT22;17779;50.942;4.026;2023-02-12T16:58:22;9.50;99.90
31133;DHT22;17779;50.942;4.026;2023-02-12T17:00:50;9.50;99.90
31133;DHT22;17779;50.942;4.026;2023-02-12T17:03:16;9.40;99.90
31133;DHT22;17779;50.942;4.026;2023-02-12T17:05:41;9.50;99.90
31133;DHT22;17779;50.942;4.026;2023-02-12T17:08:13;9.20;99.90
31133;DHT22;17779;50.942;4.026;2023-02-12T17:10:39;9.20;99.90
31133;DHT22;17779;50.942;4.026;2023-02-12T17:13:05;9.10;99.90
31133;DHT22;17779;50.942;4.026;2023-02-12T17:15:34;9.10;99.90
31133;DHT22;17779;50.942;4.026;2023-02-12T17:18:03;9.00;99.90
31133;DHT22;17779;50.942;4.026;2023-02-12T17:20:28;9.10;99.90
31133;DHT22;17779;50.942;4.026;2023-02-12T17:22:54;9.00;99.90
31133;DHT22;17779;50.942;4.026;2023-02-12T17:25:22;9.00;99.90
31133;DHT22;17779;50.942;4.026;2023-02-12T17:27:47;8.90;99.90
31133;DHT22;17779;50.942;4.026;2023-02-12T17:30:14;9.00;99.90
31133;DHT22;17779;50.942;4.026;2023-02-12T17:32:40;8.90;99.90
31133;DHT22;17779;50.942;4.026;2023-02-12T17:35:06;9.00;99.90
31133;DHT22;17779;50.942;4.026;2023-02-12T17:37:32;9.20;99.90
31133;DHT22;17779;50.942;4.026;2023-02-12T17:39:58;9.30;99.90
31133;DHT22;17779;50.942;4.026;2023-02-12T17:42:23;9.30;99.90
31133;DHT22;17779;50.942;4.026;2023-02-12T17:44:49;9.30;99.90
31133;DHT22;17779;50.942;4.026;2023-02-12T17:47:15;9.40;99.90
31133;DHT22;17779;50.942;4.026;2023-02-12T17:49:41;9.30;99.90
31133;DHT22;17779;50.942;4.026;2023-02-12T17:52:06;9.20;99.90
31133;DHT22;17779;50.942;4.026;2023-02-12T17:54:32;9.30;99.90
31133;DHT22;17779;50.942;4.026;2023-02-12T17:56:58;9.40;99.90
31133;DHT22;17779;50.942;4.026;2023-02-12T17:59:24;9.40;99.90
31133;DHT22;17779;50.942;4.026;2023-02-12T18:01:49;9.40;99.90
31133;DHT22;17779;50.942;4.026;2023-02-12T18:04:15;9.30;99.90
31133;DHT22;17779;50.942;4.026;2023-02-12T18:06:41;9.30;99.90
31133;DHT22;17779;50.942;4.026;2023-02-12T18:09:06;9.30;99.90
31133;DHT22;17779;50.942;4.026;2023-02-12T18:11:32;9.10;99.90
31133;DHT22;17779;50.942;4.026;2023-02-12T18:13:58;9.00;99.90
31133;DHT22;17779;50.942;4.026;2023-02-12T18:16:25;9.10;99.90
31133;DHT22;17779;50.942;4.026;2023-02-12T18:18:51;9.10;99.90
31133;DHT22;17779;50.942;4.026;2023-02-12T18:21:17;9.20;99.90
31133;DHT22;17779;50.942;4.026;2023-02-12T18:23:43;9.40;99.90
31133;DHT22;17779;50.942;4.026;2023-02-12T18:26:09;9.50;99.90
31133;DHT22;17779;50.942;4.026;2023-02-12T18:28:35;9.50;99.90